Time;durP1;ratioP1;P1;durP2;ratioP2;P2;SDS_P1;SDS_P2;PMS_P1;PMS_P2;Temp;Humidity;BMP_temperature;BMP_pressure;BME280_temperature;BME280_humidity;BME280_pressure;Samples;Min_cycle;Max_cycle;Signal;HPM_P1;HPM_P2
2022/06/02 00:00:59;;;;;;;3.50;3.20;;;14.60;77.30;;;;;;4952741;28;20031;-66
2022/06/02 00:03:34;;;;;;;3.20;2.90;;;14.50;76.90;;;;;;4950522;28;20066;-67
2022/06/02 00:06:33;;;;;;;4.90;3.20;;;14.50;76.90;;;;;;4953396;28;20031;-67
2022/06/02 00:09:20;;;;;;;3.33;3.03;;;14.50;77.70;;;;;;4953616;28;20039;-67
2022/06/02 00:12:13;;;;;;;3.28;2.97;;;14.40;77.30;;;;;;4952512;28;20398;-65
2022/06/02 00:15:06;;;;;;;3.65;3.13;;;14.40;78.00;;;;;;4950552;28;20034;-67
2022/06/02 00:17:49;;;;;;;3.60;3.30;;;14.30;77.80;;;;;;4952368;28;20466;-67
2022/06/02 00:20:26;;;;;;;3.55;3.25;;;14.30;77.10;;;;;;4953451;28;20387;-67
2022/06/02 00:23:21;;;;;;;7.30;3.40;;;14.30;77.30;;;;;;4954636;28;20093;-67
2022/06/02 00:26:01;;;;;;;4.70;3.22;;;14.30;77.90;;;;;;4953886;28;20813;-66
2022/06/02 00:28:26;;;;;;;3.25;2.95;;;14.20;77.30;;;;;;4950859;28;20070;-67
2022/06/02 00:31:10;;;;;;;3.42;3.15;;;14.20;76.80;;;;;;4952639;28;20444;-66
2022/06/02 00:33:57;;;;;;;3.28;2.97;;;14.10;77.60;;;;;;4952810;28;20027;-67
2022/06/02 00:36:34;;;;;;;3.17;2.90;;;14.10;77.20;;;;;;4950503;28;20035;-67
2022/06/02 00:39:00;;;;;;;5.38;3.40;;;14.10;77.30;;;;;;4950780;28;20090;-67
2022/06/02 00:41:46;;;;;;;6.97;3.40;;;14.00;76.90;;;;;;4953863;28;20514;-67
2022/06/02 00:44:44;;;;;;;4.20;3.03;;;14.10;77.80;;;;;;4951120;28;20170;-67
2022/06/02 00:47:29;;;;;;;4.20;3.35;;;14.10;77.90;;;;;;4953322;28;20077;-67
2022/06/02 00:50:15;;;;;;;3.85;3.00;;;14.10;77.80;;;;;;4953320;28;20039;-67
2022/06/02 00:53:05;;;;;;;3.08;2.88;;;14.10;77.00;;;;;;4913411;28;20042;-67
2022/06/02 00:59:16;;;;;;;4.38;2.78;;;14.00;77.30;;;;;;4861130;29;20317;-67
2022/06/02 01:01:41;;;;;;;3.08;2.85;;;14.00;77.30;;;;;;4956070;28;20028;-67
2022/06/02 01:04:14;;;;;;;3.40;3.10;;;14.00;76.50;;;;;;4952340;28;20027;-67
2022/06/02 01:07:01;;;;;;;5.28;3.00;;;14.00;77.00;;;;;;4961486;28;20106;-67
2022/06/02 01:09:42;;;;;;;3.45;3.13;;;13.90;77.20;;;;;;4955774;28;20177;-67
2022/06/02 01:12:29;;;;;;;3.35;3.15;;;13.90;77.70;;;;;;4952920;28;20246;-67
2022/06/02 01:15:25;;;;;;;3.65;3.17;;;13.80;78.20;;;;;;4952769;28;20063;-67
2022/06/02 01:18:11;;;;;;;4.03;3.42;;;13.80;78.40;;;;;;4957191;28;20043;-65
2022/06/02 01:20:51;;;;;;;3.88;3.10;;;13.70;77.90;;;;;;4955758;28;20030;-67
2022/06/02 01:23:38;;;;;;;3.47;3.17;;;13.70;79.50;;;;;;4956667;28;20031;-67
2022/06/02 01:26:42;;;;;;;4.20;3.30;;;13.70;78.30;;;;;;4956697;28;20027;-67
2022/06/02 01:29:16;;;;;;;3.70;3.40;;;13.60;78.90;;;;;;4957472;28;20130;-67
2022/06/02 01:31:44;;;;;;;3.30;3.00;;;13.60;78.70;;;;;;4952557;28;20038;-67
2022/06/02 01:34:15;;;;;;;3.25;2.80;;;13.60;78.40;;;;;;4954950;28;20407;-66
2022/06/02 01:37:06;;;;;;;3.60;3.30;;;13.60;78.90;;;;;;4956834;28;20026;-67
2022/06/02 01:39:47;;;;;;;3.25;3.03;;;13.60;79.50;;;;;;4923717;28;20064;-64
2022/06/02 01:42:35;;;;;;;3.20;3.00;;;13.60;78.40;;;;;;4955736;28;20102;-67
2022/06/02 01:45:18;;;;;;;3.58;2.83;;;13.70;79.40;;;;;;4955287;28;20036;-67
2022/06/02 01:47:48;;;;;;;3.22;2.90;;;13.60;79.00;;;;;;4958943;28;20077;-67
2022/06/02 01:50:30;;;;;;;3.00;2.72;;;13.60;78.40;;;;;;4953879;28;20039;-67
2022/06/02 01:53:17;;;;;;;2.92;2.72;;;13.60;78.60;;;;;;4953801;28;20517;-67
2022/06/02 01:55:43;;;;;;;3.20;3.00;;;13.60;78.60;;;;;;4953968;28;20034;-67
2022/06/02 01:58:31;;;;;;;5.28;3.30;;;13.60;77.90;;;;;;4957283;28;20031;-67
2022/06/02 02:01:07;;;;;;;3.47;3.17;;;13.60;78.20;;;;;;4952888;28;20114;-67
2022/06/02 02:04:01;;;;;;;4.10;3.70;;;13.50;78.30;;;;;;4952722;28;20145;-67
2022/06/02 02:06:37;;;;;;;3.90;3.60;;;13.40;79.80;;;;;;4956024;28;20092;-67
2022/06/02 02:09:23;;;;;;;4.85;3.53;;;13.40;79.70;;;;;;4954115;28;20043;-66
2022/06/02 02:11:56;;;;;;;3.53;3.22;;;13.30;79.40;;;;;;4953746;28;20039;-66
2022/06/02 02:14:31;;;;;;;3.60;3.30;;;13.30;79.00;;;;;;4951271;28;20039;-67
2022/06/02 02:17:15;;;;;;;3.60;3.28;;;13.30;79.10;;;;;;4951410;28;20109;-66
2022/06/02 02:20:36;;;;;;;3.50;3.20;;;13.20;78.90;;;;;;4953015;28;20067;-67
2022/06/02 02:23:12;;;;;;;3.35;2.92;;;13.20;79.90;;;;;;4885045;29;20040;-66
2022/06/02 02:26:01;;;;;;;3.70;3.40;;;13.20;79.20;;;;;;4945696;28;20518;-67
2022/06/02 02:28:51;;;;;;;5.70;5.10;;;13.20;79.60;;;;;;4956798;28;20047;-67
2022/06/02 02:31:26;;;;;;;7.28;5.57;;;13.20;79.50;;;;;;4952961;28;20067;-67
2022/06/02 02:34:29;;;;;;;5.60;5.10;;;13.10;80.60;;;;;;4954920;28;20254;-66
2022/06/02 02:37:17;;;;;;;5.50;4.82;;;13.10;81.40;;;;;;4955292;28;20157;-67
2022/06/02 02:39:45;;;;;;;5.88;5.30;;;13.10;81.50;;;;;;4954982;28;20039;-67
2022/06/02 02:42:36;;;;;;;6.00;5.45;;;13.10;80.50;;;;;;4953975;28;20457;-67
2022/06/02 02:45:13;;;;;;;6.10;5.50;;;13.10;81.30;;;;;;4952403;28;20168;-67
2022/06/02 02:47:42;;;;;;;6.28;5.68;;;13.10;80.80;;;;;;4951632;28;20047;-67
2022/06/02 02:50:19;;;;;;;7.63;6.38;;;13.10;80.40;;;;;;4954243;28;20450;-66
2022/06/02 02:52:48;;;;;;;6.75;6.05;;;13.10;81.00;;;;;;4951873;28;20039;-67
2022/06/02 02:55:36;;;;;;;8.00;6.65;;;13.10;81.30;;;;;;4954454;28;20035;-67
2022/06/02 02:58:24;;;;;;;6.78;6.18;;;13.00;81.70;;;;;;4954895;28;20033;-66
2022/06/02 03:01:24;;;;;;;7.65;6.88;;;13.00;82.90;;;;;;4951020;28;20105;-67
2022/06/02 03:04:07;;;;;;;6.80;6.10;;;13.00;83.10;;;;;;4953292;28;20559;-66
2022/06/02 03:06:37;;;;;;;7.93;6.07;;;13.00;82.10;;;;;;4953837;28;20026;-66
2022/06/02 03:09:23;;;;;;;7.25;6.40;;;13.10;82.20;;;;;;4954518;28;20035;-67
2022/06/02 03:11:57;;;;;;;9.00;6.78;;;13.10;82.20;;;;;;4951576;28;20085;-65
2022/06/02 03:14:59;;;;;;;7.03;6.38;;;13.10;82.60;;;;;;4947839;28;20058;-67
2022/06/02 03:17:43;;;;;;;13.57;6.63;;;13.10;82.90;;;;;;4953747;28;20629;-67
2022/06/02 03:20:39;;;;;;;8.35;6.28;;;13.10;82.70;;;;;;4952125;28;20081;-67
2022/06/02 03:23:13;;;;;;;7.47;6.78;;;13.10;83.00;;;;;;4953786;28;20027;-66
2022/06/02 03:25:47;;;;;;;8.38;7.15;;;13.10;82.00;;;;;;4951688;28;20680;-67
2022/06/02 03:28:16;;;;;;;6.60;6.00;;;13.10;82.20;;;;;;4952142;28;20619;-65
2022/06/02 03:31:03;;;;;;;8.23;6.60;;;13.00;81.90;;;;;;4955139;28;20031;-66
2022/06/02 03:33:47;;;;;;;7.10;6.00;;;13.10;82.70;;;;;;4948921;28;20399;-64
2022/06/02 03:36:32;;;;;;;6.78;5.95;;;13.00;81.70;;;;;;4952202;28;20391;-67
2022/06/02 03:39:00;;;;;;;6.30;5.70;;;13.10;81.50;;;;;;4953584;28;20137;-66
2022/06/02 03:41:51;;;;;;;6.32;5.72;;;13.10;81.50;;;;;;4954042;28;20027;-67
2022/06/02 03:44:41;;;;;;;6.07;5.53;;;13.20;81.60;;;;;;4951365;28;20035;-67
2022/06/02 03:47:25;;;;;;;5.93;5.43;;;13.20;81.60;;;;;;4951916;28;20499;-67
2022/06/02 03:50:01;;;;;;;6.10;5.53;;;13.30;81.50;;;;;;4950410;28;20039;-66
2022/06/02 03:52:54;;;;;;;5.25;4.78;;;13.30;80.80;;;;;;4952979;28;20250;-67
2022/06/02 03:55:38;;;;;;;4.53;4.13;;;13.30;80.80;;;;;;4949623;28;20035;-67
2022/06/02 03:58:06;;;;;;;5.13;4.57;;;13.40;80.50;;;;;;4951476;28;20039;-67
2022/06/02 04:00:53;;;;;;;5.32;4.47;;;13.40;80.10;;;;;;4950556;28;20058;-67
2022/06/02 04:03:26;;;;;;;5.15;4.63;;;13.40;80.30;;;;;;4954390;28;20086;-67
2022/06/02 04:05:57;;;;;;;5.03;4.60;;;13.30;80.30;;;;;;4952093;28;20074;-66
2022/06/02 04:08:23;;;;;;;37.08;14.65;;;13.40;80.30;;;;;;4950852;28;20035;-67
2022/06/02 04:13:37;;;;;;;132.55;48.28;;;13.40;80.20;;;;;;4950801;28;20049;-66
2022/06/02 04:14:42;;;;;;;74.90;30.20;;;13.40;80.80;;;;;;4952100;28;20042;-67
2022/06/02 04:17:20;;;;;;;42.78;18.60;;;13.40;80.60;;;;;;4952354;28;20510;-67
2022/06/02 04:23:26;;;;;;;19.55;10.25;;;13.40;80.60;;;;;;4950294;28;20119;-67
2022/06/02 04:26:22;;;;;;;11.18;6.93;;;13.40;80.50;;;;;;4952787;28;20027;-66
2022/06/02 04:29:09;;;;;;;9.52;5.97;;;13.50;80.50;;;;;;4932628;28;20486;-67
2022/06/02 04:32:03;;;;;;;5.40;4.90;;;13.50;80.50;;;;;;4955591;28;20031;-67
2022/06/02 04:34:34;;;;;;;9.35;4.55;;;13.50;80.30;;;;;;4957225;28;20027;-67
2022/06/02 04:37:06;;;;;;;5.30;4.80;;;13.50;79.80;;;;;;4953049;28;20036;-67
2022/06/02 04:39:46;;;;;;;6.55;5.13;;;13.50;80.00;;;;;;4953631;28;20035;-67
2022/06/02 04:42:37;;;;;;;6.47;5.35;;;13.50;80.50;;;;;;4955389;28;20066;-67
2022/06/02 04:45:21;;;;;;;6.13;5.53;;;13.60;81.00;;;;;;4954362;28;20038;-65
2022/06/02 04:48:25;;;;;;;9.30;6.22;;;13.60;81.00;;;;;;4953778;28;20527;-66
2022/06/02 04:50:53;;;;;;;10.75;7.32;;;13.60;81.20;;;;;;4952226;28;20510;-67
2022/06/02 04:53:40;;;;;;;10.85;7.78;;;13.60;80.50;;;;;;4953574;28;20059;-67
2022/06/02 04:56:41;;;;;;;7.38;6.25;;;13.60;81.30;;;;;;4954627;28;20042;-67
2022/06/02 04:59:33;;;;;;;6.40;5.57;;;13.60;82.20;;;;;;4954385;28;20035;-67
2022/06/02 05:02:07;;;;;;;7.47;5.65;;;13.70;81.10;;;;;;4954362;28;20063;-67
2022/06/02 05:04:45;;;;;;;5.28;4.78;;;13.70;81.00;;;;;;4956969;28;20043;-67
2022/06/02 05:07:48;;;;;;;7.18;5.47;;;13.80;81.00;;;;;;4953304;28;20035;-67
2022/06/02 05:10:32;;;;;;;5.88;5.28;;;13.80;81.20;;;;;;4955209;28;20137;-67
2022/06/02 05:13:33;;;;;;;7.35;4.95;;;13.80;80.60;;;;;;4951964;28;20122;-67
2022/06/02 05:16:47;;;;;;;4.82;4.43;;;13.90;81.10;;;;;;4953578;28;20399;-67
2022/06/02 05:19:36;;;;;;;5.13;4.68;;;14.00;81.00;;;;;;4927340;28;20039;-67
2022/06/02 05:22:20;;;;;;;5.22;4.80;;;14.00;80.50;;;;;;4949986;28;20530;-66
2022/06/02 05:25:17;;;;;;;5.47;5.00;;;14.10;80.30;;;;;;4953933;28;20125;-65
2022/06/02 05:27:58;;;;;;;5.53;5.03;;;14.10;79.90;;;;;;4955015;28;20070;-66
2022/06/02 05:30:45;;;;;;;5.47;4.95;;;14.20;80.10;;;;;;4954808;28;20048;-67
2022/06/02 05:33:35;;;;;;;5.80;5.20;;;14.20;80.00;;;;;;4953943;28;20042;-67
2022/06/02 05:36:16;;;;;;;6.35;5.75;;;14.30;79.80;;;;;;4954425;28;20462;-67
2022/06/02 05:39:01;;;;;;;6.07;5.25;;;14.30;79.50;;;;;;4953794;28;20074;-66
2022/06/02 05:42:04;;;;;;;4.95;4.55;;;14.40;78.80;;;;;;4953978;28;20031;-67
2022/06/02 05:44:29;;;;;;;4.85;4.45;;;14.40;77.90;;;;;;4951130;28;20035;-67
2022/06/02 05:47:17;;;;;;;5.03;4.53;;;14.50;78.00;;;;;;4954764;28;20047;-67
2022/06/02 05:49:55;;;;;;;4.88;4.47;;;14.50;77.50;;;;;;4953767;28;20407;-67
2022/06/02 05:52:29;;;;;;;5.40;4.90;;;14.50;77.60;;;;;;4958043;28;20031;-67
2022/06/02 05:55:16;;;;;;;5.00;4.50;;;14.60;77.70;;;;;;4955074;28;20031;-67
2022/06/02 05:57:56;;;;;;;7.70;5.47;;;14.60;77.10;;;;;;4958456;28;20078;-67
2022/06/02 06:00:45;;;;;;;7.32;6.43;;;14.60;77.20;;;;;;4957908;28;20058;-67
2022/06/02 06:03:17;;;;;;;4.95;4.50;;;14.70;76.00;;;;;;4958339;28;20557;-68
2022/06/02 06:06:02;;;;;;;3.88;3.53;;;14.70;75.80;;;;;;4957949;28;20039;-66
2022/06/02 06:08:40;;;;;;;3.70;3.40;;;14.70;75.60;;;;;;4955988;28;20379;-67
2022/06/02 06:11:20;;;;;;;3.80;3.13;;;14.80;75.40;;;;;;4957573;28;20510;-67
2022/06/02 06:14:11;;;;;;;3.55;3.25;;;14.80;75.90;;;;;;4956897;28;20045;-67
2022/06/02 06:16:46;;;;;;;5.22;3.17;;;14.80;75.80;;;;;;4957127;28;20054;-67
2022/06/02 06:19:14;;;;;;;;;;;14.90;74.80;;;;;;4956136;28;22486;-67
2022/06/02 06:22:03;;;;;;;6.95;3.90;;;14.90;75.10;;;;;;4956542;28;19947;-67
2022/06/02 06:24:59;;;;;;;4.45;3.88;;;15.00;74.30;;;;;;4957596;28;20493;-67
2022/06/02 06:27:53;;;;;;;6.10;3.60;;;15.00;74.00;;;;;;4957393;28;20057;-67
2022/06/02 06:30:43;;;;;;;3.80;3.47;;;15.00;74.20;;;;;;4928217;28;20039;-67
2022/06/02 06:33:17;;;;;;;4.82;3.40;;;15.00;73.90;;;;;;4954664;28;20114;-67
2022/06/02 06:35:49;;;;;;;4.43;3.35;;;15.10;74.00;;;;;;4957215;28;20035;-65
2022/06/02 06:38:26;;;;;;;5.07;3.22;;;15.10;73.60;;;;;;4955740;28;20278;-67
2022/06/02 06:40:51;;;;;;;5.20;3.03;;;15.20;73.40;;;;;;4954728;28;20398;-66
2022/06/02 06:43:47;;;;;;;4.68;3.17;;;15.20;73.50;;;;;;4957446;28;20028;-67
2022/06/02 06:46:13;;;;;;;;;;;15.30;73.20;;;;;;4957022;28;20037;-67
2022/06/02 06:48:45;;;;;;;3.45;3.15;;;15.40;73.40;;;;;;4957727;28;19922;-67
2022/06/02 06:52:08;;;;;;;2.92;2.72;;;15.40;72.50;;;;;;4956772;28;20639;-67
2022/06/02 06:54:52;;;;;;;3.10;2.78;;;15.50;72.30;;;;;;4885002;29;20033;-67
2022/06/02 06:57:31;;;;;;;4.25;2.92;;;15.60;72.50;;;;;;4886759;29;20059;-67
2022/06/02 07:00:02;;;;;;;3.17;2.60;;;15.60;71.60;;;;;;4942097;28;20046;-67
2022/06/02 07:02:47;;;;;;;4.70;2.58;;;15.70;71.40;;;;;;4955420;28;20639;-67
2022/06/02 07:05:22;;;;;;;3.65;2.70;;;15.70;71.90;;;;;;4953697;28;20039;-67
2022/06/02 07:07:57;;;;;;;2.58;2.38;;;15.80;71.70;;;;;;4954968;28;20031;-68
2022/06/02 07:10:35;;;;;;;2.83;2.55;;;15.90;72.10;;;;;;4956728;28;20122;-66
2022/06/02 07:13:15;;;;;;;3.67;2.30;;;16.00;71.30;;;;;;4954346;28;20058;-68
2022/06/02 07:16:10;;;;;;;2.92;2.20;;;16.10;70.50;;;;;;4957986;28;20526;-67
2022/06/02 07:18:42;;;;;;;;;;;16.30;70.00;;;;;;4937448;28;20076;-67
2022/06/02 07:21:45;;;;;;;1.90;1.80;;;16.40;71.10;;;;;;4957004;28;19965;-66
2022/06/02 07:24:52;;;;;;;2.28;1.80;;;16.50;69.80;;;;;;4955941;28;20019;-67
2022/06/02 07:27:43;;;;;;;3.22;2.20;;;16.60;68.80;;;;;;4905507;28;20042;-67
2022/06/02 07:30:36;;;;;;;2.22;2.03;;;16.70;68.60;;;;;;4956879;28;20067;-67
2022/06/02 07:33:16;;;;;;;3.58;2.10;;;16.80;69.00;;;;;;4951061;28;20594;-67
2022/06/02 07:35:45;;;;;;;3.38;1.85;;;16.80;69.50;;;;;;4956502;28;20058;-67
2022/06/02 07:38:32;;;;;;;2.22;2.13;;;16.90;68.90;;;;;;4955903;28;20036;-67
2022/06/02 07:41:16;;;;;;;2.45;2.03;;;17.00;68.60;;;;;;4956765;28;20051;-66
2022/06/02 07:44:06;;;;;;;2.35;2.15;;;17.10;67.60;;;;;;4954757;28;20031;-67
2022/06/02 07:47:14;;;;;;;2.40;2.20;;;17.20;68.10;;;;;;4954869;28;20031;-67
2022/06/02 07:50:13;;;;;;;2.20;2.00;;;17.30;66.60;;;;;;4955304;28;20114;-67
2022/06/02 07:53:03;;;;;;;2.13;1.95;;;17.40;66.60;;;;;;4954963;28;20419;-68
2022/06/02 07:55:57;;;;;;;1.90;1.80;;;17.50;67.40;;;;;;4954065;28;20069;-67
2022/06/02 07:58:33;;;;;;;2.38;2.17;;;17.60;66.70;;;;;;4953462;28;20068;-67
2022/06/02 08:01:18;;;;;;;2.25;2.05;;;17.70;65.20;;;;;;4954138;28;20374;-67
2022/06/02 08:04:03;;;;;;;2.35;2.00;;;17.70;64.90;;;;;;4953748;28;20584;-67
2022/06/02 08:07:01;;;;;;;4.20;2.00;;;17.80;66.30;;;;;;4956748;28;20027;-67
2022/06/02 08:10:03;;;;;;;2.95;2.03;;;17.90;64.70;;;;;;4955309;28;20081;-67
2022/06/02 08:12:43;;;;;;;2.70;1.73;;;18.00;65.20;;;;;;4955579;28;20501;-67
2022/06/02 08:15:26;;;;;;;3.55;2.00;;;18.00;66.00;;;;;;4952436;28;20502;-67
2022/06/02 08:17:57;;;;;;;2.13;1.95;;;18.10;65.20;;;;;;4956007;28;20039;-66
2022/06/02 08:20:36;;;;;;;3.38;1.80;;;18.30;65.80;;;;;;4955011;28;20035;-67
2022/06/02 08:23:24;;;;;;;1.95;1.85;;;18.30;64.60;;;;;;4953976;28;20514;-67
2022/06/02 08:26:08;;;;;;;2.72;2.10;;;18.50;64.20;;;;;;4957216;28;20036;-68
2022/06/02 08:29:04;;;;;;;1.60;1.50;;;18.60;63.30;;;;;;4955591;28;20039;-68
2022/06/02 08:31:33;;;;;;;10.38;1.98;;;18.70;63.40;;;;;;4956093;28;20177;-67
2022/06/02 08:34:26;;;;;;;3.90;2.30;;;18.80;63.80;;;;;;4955559;28;20088;-67
2022/06/02 08:37:01;;;;;;;2.17;1.90;;;18.90;62.40;;;;;;4954627;28;20125;-68
2022/06/02 08:39:33;;;;;;;;;;;19.00;63.10;;;;;;4957975;28;20073;-68
2022/06/02 08:42:21;;;;;;;1.60;1.50;;;19.00;61.40;;;;;;4953591;28;20009;-68
2022/06/02 08:45:21;;;;;;;2.10;1.60;;;19.10;64.10;;;;;;4955757;28;20056;-68
2022/06/02 08:48:09;;;;;;;2.60;2.30;;;19.30;63.40;;;;;;4956187;28;20061;-66
2022/06/02 08:51:00;;;;;;;2.20;1.90;;;19.40;59.70;;;;;;4956471;28;20038;-67
2022/06/02 08:53:57;;;;;;;2.33;2.10;;;19.50;58.60;;;;;;4957964;28;20038;-67
2022/06/02 08:56:41;;;;;;;2.40;1.88;;;19.60;60.70;;;;;;4958170;28;20027;-67
2022/06/02 08:59:29;;;;;;;2.17;1.88;;;19.60;62.10;;;;;;4954525;28;21929;-68
2022/06/02 09:02:34;;;;;;;2.25;2.03;;;19.70;60.30;;;;;;4955859;28;20039;-67
2022/06/02 09:05:37;;;;;;;3.57;2.00;;;19.90;59.60;;;;;;4956481;28;20525;-66
2022/06/02 09:08:27;;;;;;;2.30;2.03;;;20.10;59.60;;;;;;4962397;28;20038;-67
2022/06/02 09:11:26;;;;;;;1.80;1.70;;;20.20;60.10;;;;;;4957916;28;21798;-68
2022/06/02 09:14:17;;;;;;;2.10;1.83;;;20.30;60.30;;;;;;4957608;28;20035;-67
2022/06/02 09:17:37;;;;;;;3.97;2.28;;;20.40;61.20;;;;;;4953557;28;20338;-68
2022/06/02 09:20:09;;;;;;;2.78;2.30;;;20.60;59.80;;;;;;4879126;29;20037;-68
2022/06/02 09:23:07;;;;;;;3.28;2.00;;;20.70;58.80;;;;;;4953370;28;20042;-68
2022/06/02 09:25:48;;;;;;;2.10;1.90;;;20.70;58.10;;;;;;4956726;28;20122;-68
2022/06/02 09:28:32;;;;;;;2.53;2.03;;;20.80;57.90;;;;;;4958649;28;20035;-67
2022/06/02 09:31:20;;;;;;;2.90;1.97;;;20.90;56.90;;;;;;4958478;28;20176;-68
2022/06/02 09:34:05;;;;;;;3.53;1.90;;;20.90;56.70;;;;;;4958497;28;20035;-68
2022/06/02 09:36:45;;;;;;;3.00;1.63;;;20.90;58.30;;;;;;4959118;28;20163;-67
2022/06/02 09:39:23;;;;;;;1.65;1.55;;;21.00;58.30;;;;;;4957716;28;20034;-68
2022/06/02 09:41:57;;;;;;;1.48;1.38;;;21.10;57.90;;;;;;4958744;28;20034;-66
2022/06/02 09:44:53;;;;;;;1.60;1.50;;;21.20;57.70;;;;;;4959744;28;20062;-67
2022/06/02 09:47:21;;;;;;;;;;;21.40;57.60;;;;;;4958190;28;20086;-68
2022/06/02 09:50:02;;;;;;;1.85;1.30;;;21.50;58.90;;;;;;4958502;28;20374;-67
2022/06/02 09:52:43;;;;;;;2.88;1.70;;;21.60;58.60;;;;;;4957439;28;20042;-66
2022/06/02 09:55:23;;;;;;;1.98;1.75;;;21.80;57.60;;;;;;4958151;28;20085;-67
2022/06/02 09:57:58;;;;;;;1.58;1.27;;;21.90;56.60;;;;;;4957566;28;20035;-68
2022/06/02 10:00:54;;;;;;;1.52;1.42;;;22.00;56.30;;;;;;4958888;28;20053;-67
2022/06/02 10:03:49;;;;;;;2.20;1.55;;;22.20;55.60;;;;;;4957700;28;20299;-68
2022/06/02 10:06:58;;;;;;;2.28;1.90;;;22.30;55.80;;;;;;4957667;28;20414;-68
2022/06/02 10:09:59;;;;;;;1.70;1.60;;;22.40;55.20;;;;;;4956067;28;20043;-68
2022/06/02 10:12:56;;;;;;;1.80;1.70;;;22.50;55.70;;;;;;4954542;28;20047;-66
2022/06/02 10:15:21;;;;;;;1.85;1.40;;;22.60;55.30;;;;;;4957571;28;20042;-68
2022/06/02 10:17:51;;;;;;;1.67;1.52;;;22.70;55.60;;;;;;4959123;28;20024;-67
2022/06/02 10:20:56;;;;;;;2.22;1.40;;;22.80;54.00;;;;;;4958095;28;20042;-68
2022/06/02 10:23:25;;;;;;;2.38;1.48;;;22.80;53.30;;;;;;4958619;28;20035;-68
2022/06/02 10:26:09;;;;;;;1.35;1.25;;;22.90;55.00;;;;;;4958542;28;20035;-68
2022/06/02 10:29:12;;;;;;;1.63;1.07;;;23.00;53.40;;;;;;4954605;28;20548;-68
2022/06/02 10:31:53;;;;;;;2.35;1.40;;;23.00;53.20;;;;;;4957259;28;20290;-68
2022/06/02 10:34:52;;;;;;;2.47;1.00;;;23.10;51.50;;;;;;4957050;28;20110;-68
2022/06/02 10:37:45;;;;;;;1.70;1.08;;;23.20;52.10;;;;;;4955168;28;20110;-68
2022/06/02 10:40:16;;;;;;;2.70;1.10;;;23.20;52.70;;;;;;4957043;28;20027;-68
2022/06/02 10:43:12;;;;;;;1.92;1.10;;;23.30;52.90;;;;;;4955382;28;20035;-68
2022/06/02 10:45:53;;;;;;;1.35;1.02;;;23.30;51.60;;;;;;4955891;28;20031;-68
2022/06/02 10:48:39;;;;;;;1.95;1.00;;;23.30;51.50;;;;;;4957317;28;20035;-68
2022/06/02 10:51:35;;;;;;;1.02;0.93;;;23.40;51.00;;;;;;4957996;28;20040;-68
2022/06/02 10:54:08;;;;;;;3.45;1.42;;;23.40;50.80;;;;;;4957129;28;20806;-68
2022/06/02 10:56:52;;;;;;;2.80;1.20;;;23.40;50.80;;;;;;4961332;28;20062;-68
2022/06/02 10:59:31;;;;;;;2.92;1.60;;;23.40;51.40;;;;;;4956614;28;20032;-68
2022/06/02 11:02:19;;;;;;;1.88;1.10;;;23.50;51.90;;;;;;4962748;28;20071;-67
2022/06/02 11:05:39;;;;;;;1.80;1.05;;;23.50;50.10;;;;;;4954843;28;20425;-68
2022/06/02 11:08:38;;;;;;;1.23;1.15;;;23.50;51.00;;;;;;4886238;29;20458;-68
2022/06/02 11:11:24;;;;;;;1.35;1.20;;;23.50;50.90;;;;;;4956640;28;20050;-68
2022/06/02 11:14:25;;;;;;;1.65;1.20;;;23.60;51.20;;;;;;4942464;28;20097;-67
2022/06/02 11:17:10;;;;;;;2.45;0.88;;;23.60;50.30;;;;;;4956814;28;20057;-67
2022/06/02 11:19:36;;;;;;;1.33;1.10;;;23.60;50.20;;;;;;4957698;28;20542;-68
2022/06/02 11:22:20;;;;;;;2.80;1.30;;;23.70;51.20;;;;;;4956013;28;20569;-68
2022/06/02 11:25:01;;;;;;;1.17;1.15;;;23.70;48.90;;;;;;4957728;28;20437;-68
2022/06/02 11:27:53;;;;;;;2.13;1.23;;;23.70;50.70;;;;;;4954782;28;20478;-68
2022/06/02 11:30:32;;;;;;;1.77;0.98;;;23.80;51.30;;;;;;4956286;28;20671;-68
2022/06/02 11:33:34;;;;;;;1.05;1.00;;;23.90;51.70;;;;;;4956144;28;20034;-68
2022/06/02 11:36:06;;;;;;;2.58;1.30;;;24.00;50.40;;;;;;4954421;28;20031;-68
2022/06/02 11:38:50;;;;;;;1.35;1.10;;;24.00;50.90;;;;;;4960618;28;20038;-68
2022/06/02 11:41:15;;;;;;;2.70;1.25;;;24.10;50.20;;;;;;4956678;28;20525;-68
2022/06/02 11:44:03;;;;;;;1.17;1.00;;;24.10;50.30;;;;;;4956994;28;20023;-68
2022/06/02 11:46:47;;;;;;;1.20;1.10;;;24.10;49.30;;;;;;4956991;28;20031;-68
2022/06/02 11:49:44;;;;;;;1.80;1.10;;;24.20;50.30;;;;;;4955072;28;20311;-68
2022/06/02 11:52:27;;;;;;;1.02;0.90;;;24.30;50.00;;;;;;4956673;28;20027;-65
2022/06/02 11:55:02;;;;;;;2.50;1.10;;;24.30;50.00;;;;;;4954608;28;20035;-69
2022/06/02 11:58:00;;;;;;;2.58;1.17;;;24.30;50.00;;;;;;4955490;28;20328;-68
2022/06/02 12:00:47;;;;;;;1.55;1.33;;;24.40;49.20;;;;;;4957111;28;20041;-68
2022/06/02 12:03:34;;;;;;;2.22;1.20;;;24.40;49.50;;;;;;4955022;28;20023;-68
2022/06/02 12:06:03;;;;;;;1.33;1.00;;;24.40;48.30;;;;;;4954762;28;20066;-68
2022/06/02 12:08:31;;;;;;;2.25;0.82;;;24.40;49.60;;;;;;4954241;28;20069;-68
2022/06/02 12:11:15;;;;;;;1.25;1.15;;;24.40;49.70;;;;;;4954173;28;20053;-67
2022/06/02 12:14:12;;;;;;;1.83;1.25;;;24.40;50.10;;;;;;4958177;28;20040;-68
2022/06/02 12:17:04;;;;;;;1.20;1.00;;;24.40;50.10;;;;;;4958637;28;20501;-68
2022/06/02 12:19:58;;;;;;;1.33;1.10;;;24.40;49.90;;;;;;4958205;28;20093;-68
2022/06/02 12:22:26;;;;;;;1.10;1.00;;;24.40;48.50;;;;;;4958611;28;20035;-68
2022/06/02 12:25:16;;;;;;;1.77;1.13;;;24.40;48.50;;;;;;4959410;28;20410;-68
2022/06/02 12:28:10;;;;;;;1.40;1.30;;;24.40;49.20;;;;;;4958629;28;20530;-68
2022/06/02 12:30:49;;;;;;;2.90;1.10;;;24.40;49.40;;;;;;4956876;28;20039;-68
2022/06/02 12:33:21;;;;;;;1.60;1.15;;;24.40;49.30;;;;;;4959374;28;20034;-68
2022/06/02 12:36:05;;;;;;;0.98;0.98;;;24.40;50.40;;;;;;4957540;28;20579;-65
2022/06/02 12:39:07;;;;;;;1.00;1.00;;;24.40;49.30;;;;;;4958889;28;20055;-68
2022/06/02 12:41:54;;;;;;;2.78;1.25;;;24.50;49.40;;;;;;4958561;28;20114;-68
2022/06/02 12:44:37;;;;;;;0.90;0.90;;;24.50;49.40;;;;;;4958828;28;20039;-68
2022/06/02 12:47:12;;;;;;;1.30;1.20;;;24.50;49.80;;;;;;4958450;28;20046;-68
2022/06/02 12:49:59;;;;;;;1.73;1.33;;;24.60;49.80;;;;;;4958392;28;20059;-68
2022/06/02 12:52:56;;;;;;;1.02;0.93;;;24.60;49.10;;;;;;4957174;28;20087;-66
2022/06/02 12:55:30;;;;;;;0.98;0.98;;;24.60;49.20;;;;;;4958764;28;20232;-68
2022/06/02 12:58:15;;;;;;;1.20;1.10;;;24.60;50.00;;;;;;4959003;28;20070;-68
2022/06/02 13:01:13;;;;;;;1.17;0.93;;;24.70;49.60;;;;;;4961243;28;20038;-68
2022/06/02 13:04:00;;;;;;;1.42;1.00;;;24.70;49.60;;;;;;4962712;28;20065;-68
2022/06/02 13:06:43;;;;;;;1.30;1.20;;;24.70;48.80;;;;;;4960316;28;20066;-68
2022/06/02 13:09:12;;;;;;;1.75;1.10;;;24.80;49.50;;;;;;4961671;28;20027;-68
2022/06/02 13:12:06;;;;;;;3.08;1.30;;;24.80;50.00;;;;;;4960360;28;20035;-68
2022/06/02 13:15:09;;;;;;;1.27;1.17;;;24.80;49.10;;;;;;4959269;28;21261;-68
2022/06/02 13:18:28;;;;;;;1.30;1.20;;;24.90;48.90;;;;;;4957882;28;20043;-68
2022/06/02 13:21:05;;;;;;;1.35;1.20;;;24.90;48.50;;;;;;4959107;28;20023;-68
2022/06/02 13:23:55;;;;;;;1.50;1.10;;;25.00;49.20;;;;;;4958424;28;20034;-68
2022/06/02 13:26:39;;;;;;;0.90;0.90;;;25.00;48.30;;;;;;4959908;28;20785;-67
2022/06/02 13:29:30;;;;;;;3.13;1.20;;;25.10;48.40;;;;;;4958354;28;20043;-67
2022/06/02 13:32:13;;;;;;;2.17;1.10;;;25.10;48.80;;;;;;4958945;28;20031;-68
2022/06/02 13:34:58;;;;;;;1.38;1.25;;;25.20;47.70;;;;;;4958670;28;20041;-68
2022/06/02 13:37:48;;;;;;;1.60;1.27;;;25.20;49.10;;;;;;4958922;28;20035;-67
2022/06/02 13:40:43;;;;;;;3.17;1.25;;;25.20;48.90;;;;;;4959528;28;20027;-68
2022/06/02 13:43:20;;;;;;;1.20;1.10;;;25.20;49.30;;;;;;4920506;28;20379;-68
2022/06/02 13:46:01;;;;;;;2.45;1.50;;;25.30;49.00;;;;;;4958630;28;20271;-68
2022/06/02 13:48:48;;;;;;;1.85;1.25;;;25.30;49.00;;;;;;4955837;28;20155;-68
2022/06/02 13:51:58;;;;;;;1.50;1.40;;;25.30;49.00;;;;;;4955607;28;20055;-67
2022/06/02 13:57:31;;;;;;;1.50;1.23;;;25.30;49.00;;;;;;4957653;28;20062;-68
2022/06/02 14:00:17;;;;;;;1.40;1.30;;;25.40;48.90;;;;;;4959841;28;20042;-68
2022/06/02 14:03:01;;;;;;;1.25;1.10;;;25.40;49.10;;;;;;4956854;28;20027;-68
2022/06/02 14:05:40;;;;;;;3.00;1.23;;;25.40;49.00;;;;;;4958666;28;20019;-68
2022/06/02 14:08:21;;;;;;;1.25;1.15;;;25.40;49.10;;;;;;4954899;28;20388;-68
2022/06/02 14:10:56;;;;;;;1.38;1.23;;;25.50;48.30;;;;;;4953201;28;20045;-66
2022/06/02 14:13:40;;;;;;;1.70;1.02;;;25.50;48.00;;;;;;4954368;28;20039;-68
2022/06/02 14:16:20;;;;;;;1.20;1.10;;;25.50;48.20;;;;;;4953319;28;20596;-68
2022/06/02 14:19:04;;;;;;;1.33;1.10;;;25.40;48.00;;;;;;4953407;28;20612;-68
2022/06/02 14:22:07;;;;;;;2.28;1.00;;;25.40;48.30;;;;;;4956463;28;20038;-68
2022/06/02 14:25:09;;;;;;;1.52;1.27;;;25.40;48.50;;;;;;4953519;28;20458;-68
2022/06/02 14:28:06;;;;;;;1.48;1.00;;;25.30;48.20;;;;;;4944132;28;20074;-68
2022/06/02 14:30:39;;;;;;;1.90;1.23;;;25.20;48.20;;;;;;4952003;28;20680;-68